sensor_id;sensor_type;location;lat;lon;timestamp;P1;durP1;ratioP1;P2;durP2;ratioP2
67816;SDS011;54614;47.576;7.524;2024-01-30T00:02:12;2.70;;;2.50;;
67816;SDS011;54614;47.576;7.524;2024-01-30T00:04:37;3.83;;;2.92;;
67816;SDS011;54614;47.576;7.524;2024-01-30T00:07:03;6.03;;;3.10;;
67816;SDS011;54614;47.576;7.524;2024-01-30T00:09:29;3.17;;;2.87;;
67816;SDS011;54614;47.576;7.524;2024-01-30T00:11:55;3.63;;;2.73;;
67816;SDS011;54614;47.576;7.524;2024-01-30T00:14:21;4.30;;;2.80;;
67816;SDS011;54614;47.576;7.524;2024-01-30T00:16:48;3.17;;;2.70;;
67816;SDS011;54614;47.576;7.524;2024-01-30T00:19:14;3.73;;;3.07;;
67816;SDS011;54614;47.576;7.524;2024-01-30T00:21:39;3.63;;;2.90;;
67816;SDS011;54614;47.576;7.524;2024-01-30T00:24:06;4.57;;;3.00;;
67816;SDS011;54614;47.576;7.524;2024-01-30T00:26:32;3.37;;;2.47;;
67816;SDS011;54614;47.576;7.524;2024-01-30T00:28:57;4.13;;;2.90;;
67816;SDS011;54614;47.576;7.524;2024-01-30T00:31:23;7.10;;;2.80;;
67816;SDS011;54614;47.576;7.524;2024-01-30T00:33:49;4.63;;;2.80;;
67816;SDS011;54614;47.576;7.524;2024-01-30T00:36:15;3.00;;;2.63;;
67816;SDS011;54614;47.576;7.524;2024-01-30T00:38:41;6.73;;;2.77;;
67816;SDS011;54614;47.576;7.524;2024-01-30T00:41:10;3.00;;;2.77;;
67816;SDS011;54614;47.576;7.524;2024-01-30T00:43:36;3.90;;;2.87;;
67816;SDS011;54614;47.576;7.524;2024-01-30T00:46:02;5.00;;;2.87;;
67816;SDS011;54614;47.576;7.524;2024-01-30T00:48:28;4.27;;;2.80;;
67816;SDS011;54614;47.576;7.524;2024-01-30T00:50:54;3.20;;;2.90;;
67816;SDS011;54614;47.576;7.524;2024-01-30T00:53:20;4.97;;;2.70;;
67816;SDS011;54614;47.576;7.524;2024-01-30T00:55:45;3.33;;;2.73;;
67816;SDS011;54614;47.576;7.524;2024-01-30T00:58:11;3.47;;;2.50;;
67816;SDS011;54614;47.576;7.524;2024-01-30T01:00:37;2.90;;;2.60;;
67816;SDS011;54614;47.576;7.524;2024-01-30T01:03:03;2.63;;;2.43;;
67816;SDS011;54614;47.576;7.524;2024-01-30T01:05:29;2.87;;;2.50;;
67816;SDS011;54614;47.576;7.524;2024-01-30T01:07:55;3.03;;;2.67;;
67816;SDS011;54614;47.576;7.524;2024-01-30T01:10:21;5.83;;;2.77;;
67816;SDS011;54614;47.576;7.524;2024-01-30T01:12:47;4.87;;;2.80;;
67816;SDS011;54614;47.576;7.524;2024-01-30T01:15:13;2.60;;;2.40;;
67816;SDS011;54614;47.576;7.524;2024-01-30T01:17:39;3.20;;;2.80;;
67816;SDS011;54614;47.576;7.524;2024-01-30T01:20:05;2.73;;;2.53;;
67816;SDS011;54614;47.576;7.524;2024-01-30T01:22:33;3.10;;;2.80;;
67816;SDS011;54614;47.576;7.524;2024-01-30T01:24:59;2.85;;;2.50;;
67816;SDS011;54614;47.576;7.524;2024-01-30T01:27:26;2.60;;;2.40;;
67816;SDS011;54614;47.576;7.524;2024-01-30T01:29:52;5.67;;;2.73;;
67816;SDS011;54614;47.576;7.524;2024-01-30T01:32:18;2.70;;;2.50;;
67816;SDS011;54614;47.576;7.524;2024-01-30T01:34:44;2.77;;;2.57;;
67816;SDS011;54614;47.576;7.524;2024-01-30T01:37:10;2.77;;;2.50;;
67816;SDS011;54614;47.576;7.524;2024-01-30T01:39:35;3.40;;;2.87;;
67816;SDS011;54614;47.576;7.524;2024-01-30T01:42:01;4.73;;;2.60;;
67816;SDS011;54614;47.576;7.524;2024-01-30T01:44:27;3.10;;;2.72;;
67816;SDS011;54614;47.576;7.524;2024-01-30T01:46:53;3.23;;;2.47;;
67816;SDS011;54614;47.576;7.524;2024-01-30T01:49:24;2.90;;;2.60;;
67816;SDS011;54614;47.576;7.524;2024-01-30T01:51:54;4.03;;;2.47;;
67816;SDS011;54614;47.576;7.524;2024-01-30T01:54:22;2.90;;;2.30;;
67816;SDS011;54614;47.576;7.524;2024-01-30T01:56:51;3.23;;;2.60;;
67816;SDS011;54614;47.576;7.524;2024-01-30T01:59:18;5.03;;;2.50;;
67816;SDS011;54614;47.576;7.524;2024-01-30T02:01:47;2.83;;;2.50;;
67816;SDS011;54614;47.576;7.524;2024-01-30T02:04:16;3.03;;;2.60;;
67816;SDS011;54614;47.576;7.524;2024-01-30T02:06:42;2.67;;;2.33;;
67816;SDS011;54614;47.576;7.524;2024-01-30T02:09:09;2.93;;;2.40;;
67816;SDS011;54614;47.576;7.524;2024-01-30T02:11:35;2.70;;;2.47;;
67816;SDS011;54614;47.576;7.524;2024-01-30T02:14:04;2.70;;;2.50;;
67816;SDS011;54614;47.576;7.524;2024-01-30T02:16:31;2.83;;;2.53;;
67816;SDS011;54614;47.576;7.524;2024-01-30T02:18:57;4.57;;;2.70;;
67816;SDS011;54614;47.576;7.524;2024-01-30T02:21:23;3.00;;;2.70;;
67816;SDS011;54614;47.576;7.524;2024-01-30T02:23:49;2.50;;;2.30;;
67816;SDS011;54614;47.576;7.524;2024-01-30T02:26:17;2.47;;;2.27;;
67816;SDS011;54614;47.576;7.524;2024-01-30T02:28:43;2.63;;;2.42;;
67816;SDS011;54614;47.576;7.524;2024-01-30T02:31:09;2.80;;;2.50;;
67816;SDS011;54614;47.576;7.524;2024-01-30T02:33:34;2.58;;;2.38;;
67816;SDS011;54614;47.576;7.524;2024-01-30T02:36:00;3.03;;;2.70;;
67816;SDS011;54614;47.576;7.524;2024-01-30T02:38:26;3.67;;;2.63;;
67816;SDS011;54614;47.576;7.524;2024-01-30T02:40:52;3.43;;;2.63;;
67816;SDS011;54614;47.576;7.524;2024-01-30T02:43:18;4.47;;;2.60;;
67816;SDS011;54614;47.576;7.524;2024-01-30T02:45:44;2.80;;;2.40;;
67816;SDS011;54614;47.576;7.524;2024-01-30T02:48:10;3.00;;;2.70;;
67816;SDS011;54614;47.576;7.524;2024-01-30T02:50:35;3.93;;;2.50;;
67816;SDS011;54614;47.576;7.524;2024-01-30T02:53:01;3.80;;;2.63;;
67816;SDS011;54614;47.576;7.524;2024-01-30T02:55:27;3.07;;;2.37;;
67816;SDS011;54614;47.576;7.524;2024-01-30T02:57:53;3.60;;;2.47;;
67816;SDS011;54614;47.576;7.524;2024-01-30T03:00:19;2.60;;;2.40;;
67816;SDS011;54614;47.576;7.524;2024-01-30T03:02:45;2.83;;;2.47;;
67816;SDS011;54614;47.576;7.524;2024-01-30T03:05:11;2.70;;;2.50;;
67816;SDS011;54614;47.576;7.524;2024-01-30T03:07:37;2.87;;;2.53;;
67816;SDS011;54614;47.576;7.524;2024-01-30T03:10:06;2.50;;;2.30;;
67816;SDS011;54614;47.576;7.524;2024-01-30T03:12:32;3.23;;;2.40;;
67816;SDS011;54614;47.576;7.524;2024-01-30T03:14:58;3.17;;;2.30;;
67816;SDS011;54614;47.576;7.524;2024-01-30T03:17:24;3.77;;;2.43;;
67816;SDS011;54614;47.576;7.524;2024-01-30T03:19:50;2.50;;;2.30;;
67816;SDS011;54614;47.576;7.524;2024-01-30T03:22:16;2.53;;;2.30;;
67816;SDS011;54614;47.576;7.524;2024-01-30T03:24:42;2.47;;;2.27;;
67816;SDS011;54614;47.576;7.524;2024-01-30T03:27:08;2.70;;;2.27;;
67816;SDS011;54614;47.576;7.524;2024-01-30T03:29:34;3.43;;;2.20;;
67816;SDS011;54614;47.576;7.524;2024-01-30T03:32:00;3.47;;;2.33;;
67816;SDS011;54614;47.576;7.524;2024-01-30T03:34:26;3.20;;;2.40;;
67816;SDS011;54614;47.576;7.524;2024-01-30T03:36:52;4.13;;;2.40;;
67816;SDS011;54614;47.576;7.524;2024-01-30T03:39:18;4.33;;;2.40;;
67816;SDS011;54614;47.576;7.524;2024-01-30T03:41:44;4.67;;;2.20;;
67816;SDS011;54614;47.576;7.524;2024-01-30T03:44:10;2.80;;;2.50;;
67816;SDS011;54614;47.576;7.524;2024-01-30T03:46:36;2.37;;;2.20;;
67816;SDS011;54614;47.576;7.524;2024-01-30T03:49:02;3.53;;;2.47;;
67816;SDS011;54614;47.576;7.524;2024-01-30T03:51:28;2.60;;;2.40;;
67816;SDS011;54614;47.576;7.524;2024-01-30T03:53:54;3.27;;;2.30;;
67816;SDS011;54614;47.576;7.524;2024-01-30T03:56:19;2.90;;;2.37;;
67816;SDS011;54614;47.576;7.524;2024-01-30T03:58:45;2.50;;;2.30;;
67816;SDS011;54614;47.576;7.524;2024-01-30T04:01:14;4.00;;;2.47;;
67816;SDS011;54614;47.576;7.524;2024-01-30T04:03:40;2.43;;;2.23;;
67816;SDS011;54614;47.576;7.524;2024-01-30T04:06:07;3.33;;;2.40;;
67816;SDS011;54614;47.576;7.524;2024-01-30T04:08:33;2.50;;;2.30;;
67816;SDS011;54614;47.576;7.524;2024-01-30T04:11:02;2.40;;;2.20;;
67816;SDS011;54614;47.576;7.524;2024-01-30T04:13:31;2.90;;;2.20;;
67816;SDS011;54614;47.576;7.524;2024-01-30T04:15:59;2.40;;;2.10;;
67816;SDS011;54614;47.576;7.524;2024-01-30T04:18:28;2.70;;;2.40;;
67816;SDS011;54614;47.576;7.524;2024-01-30T04:20:54;2.40;;;2.20;;
67816;SDS011;54614;47.576;7.524;2024-01-30T04:23:20;2.53;;;2.33;;
67816;SDS011;54614;47.576;7.524;2024-01-30T04:25:46;2.40;;;2.20;;
67816;SDS011;54614;47.576;7.524;2024-01-30T04:28:12;2.80;;;2.50;;
67816;SDS011;54614;47.576;7.524;2024-01-30T04:30:38;3.77;;;2.30;;
67816;SDS011;54614;47.576;7.524;2024-01-30T04:33:04;2.80;;;2.27;;
67816;SDS011;54614;47.576;7.524;2024-01-30T04:35:30;3.07;;;2.20;;
67816;SDS011;54614;47.576;7.524;2024-01-30T04:37:56;2.40;;;2.20;;
67816;SDS011;54614;47.576;7.524;2024-01-30T04:40:21;2.53;;;2.20;;
67816;SDS011;54614;47.576;7.524;2024-01-30T04:42:48;3.10;;;2.80;;
67816;SDS011;54614;47.576;7.524;2024-01-30T04:45:14;5.37;;;3.17;;
67816;SDS011;54614;47.576;7.524;2024-01-30T04:47:39;4.37;;;3.27;;
67816;SDS011;54614;47.576;7.524;2024-01-30T04:50:08;6.13;;;3.90;;
67816;SDS011;54614;47.576;7.524;2024-01-30T04:52:34;5.67;;;3.80;;
67816;SDS011;54614;47.576;7.524;2024-01-30T04:55:00;5.63;;;4.15;;
67816;SDS011;54614;47.576;7.524;2024-01-30T04:57:27;6.87;;;5.13;;
67816;SDS011;54614;47.576;7.524;2024-01-30T04:59:52;10.53;;;6.43;;
67816;SDS011;54614;47.576;7.524;2024-01-30T05:02:19;8.83;;;6.00;;
67816;SDS011;54614;47.576;7.524;2024-01-30T05:04:44;13.47;;;8.57;;
67816;SDS011;54614;47.576;7.524;2024-01-30T05:07:10;16.80;;;10.40;;
67816;SDS011;54614;47.576;7.524;2024-01-30T05:09:36;18.83;;;11.80;;
67816;SDS011;54614;47.576;7.524;2024-01-30T05:12:02;20.03;;;12.37;;
67816;SDS011;54614;47.576;7.524;2024-01-30T05:14:28;19.53;;;11.93;;
67816;SDS011;54614;47.576;7.524;2024-01-30T05:16:54;22.00;;;12.00;;
67816;SDS011;54614;47.576;7.524;2024-01-30T05:19:19;22.63;;;11.90;;
67816;SDS011;54614;47.576;7.524;2024-01-30T05:21:47;17.93;;;11.60;;
67816;SDS011;54614;47.576;7.524;2024-01-30T05:24:14;18.90;;;10.83;;
67816;SDS011;54614;47.576;7.524;2024-01-30T05:26:40;16.53;;;10.20;;
67816;SDS011;54614;47.576;7.524;2024-01-30T05:29:06;16.33;;;9.70;;
67816;SDS011;54614;47.576;7.524;2024-01-30T05:31:33;15.57;;;9.53;;
67816;SDS011;54614;47.576;7.524;2024-01-30T05:33:59;15.17;;;9.07;;
67816;SDS011;54614;47.576;7.524;2024-01-30T05:36:25;12.68;;;8.05;;
67816;SDS011;54614;47.576;7.524;2024-01-30T05:38:51;13.00;;;8.93;;
67816;SDS011;54614;47.576;7.524;2024-01-30T05:41:17;16.83;;;8.13;;
67816;SDS011;54614;47.576;7.524;2024-01-30T05:43:42;12.53;;;7.83;;
67816;SDS011;54614;47.576;7.524;2024-01-30T05:46:08;11.33;;;7.47;;
67816;SDS011;54614;47.576;7.524;2024-01-30T05:48:34;10.57;;;7.33;;
67816;SDS011;54614;47.576;7.524;2024-01-30T05:51:00;11.30;;;7.27;;
67816;SDS011;54614;47.576;7.524;2024-01-30T05:53:28;11.90;;;7.27;;
67816;SDS011;54614;47.576;7.524;2024-01-30T05:55:55;10.60;;;6.23;;
67816;SDS011;54614;47.576;7.524;2024-01-30T05:58:20;11.30;;;6.50;;
67816;SDS011;54614;47.576;7.524;2024-01-30T06:00:47;12.27;;;7.07;;
67816;SDS011;54614;47.576;7.524;2024-01-30T06:03:12;14.20;;;8.10;;
67816;SDS011;54614;47.576;7.524;2024-01-30T06:05:38;19.43;;;9.00;;
67816;SDS011;54614;47.576;7.524;2024-01-30T06:08:04;17.20;;;8.18;;
67816;SDS011;54614;47.576;7.524;2024-01-30T06:10:30;22.30;;;8.77;;
67816;SDS011;54614;47.576;7.524;2024-01-30T06:12:56;16.63;;;8.27;;
67816;SDS011;54614;47.576;7.524;2024-01-30T06:15:22;12.18;;;7.80;;
67816;SDS011;54614;47.576;7.524;2024-01-30T06:17:47;15.93;;;8.07;;
67816;SDS011;54614;47.576;7.524;2024-01-30T06:20:13;15.35;;;7.97;;
67816;SDS011;54614;47.576;7.524;2024-01-30T06:22:39;12.18;;;7.65;;
67816;SDS011;54614;47.576;7.524;2024-01-30T06:25:05;17.45;;;7.25;;
67816;SDS011;54614;47.576;7.524;2024-01-30T06:27:31;10.13;;;6.75;;
67816;SDS011;54614;47.576;7.524;2024-01-30T06:29:57;14.25;;;7.05;;
67816;SDS011;54614;47.576;7.524;2024-01-30T06:32:22;14.07;;;6.50;;
67816;SDS011;54614;47.576;7.524;2024-01-30T06:34:48;11.70;;;6.00;;
67816;SDS011;54614;47.576;7.524;2024-01-30T06:37:14;11.18;;;6.07;;
67816;SDS011;54614;47.576;7.524;2024-01-30T06:39:39;11.05;;;6.00;;
67816;SDS011;54614;47.576;7.524;2024-01-30T06:42:05;12.73;;;6.65;;
67816;SDS011;54614;47.576;7.524;2024-01-30T06:44:31;9.65;;;6.40;;
67816;SDS011;54614;47.576;7.524;2024-01-30T06:46:57;11.68;;;6.45;;
67816;SDS011;54614;47.576;7.524;2024-01-30T06:49:22;14.30;;;6.35;;
67816;SDS011;54614;47.576;7.524;2024-01-30T06:51:48;12.02;;;5.88;;
67816;SDS011;54614;47.576;7.524;2024-01-30T06:54:14;11.13;;;5.80;;
67816;SDS011;54614;47.576;7.524;2024-01-30T06:56:39;10.60;;;5.60;;
67816;SDS011;54614;47.576;7.524;2024-01-30T06:59:05;10.27;;;5.65;;
67816;SDS011;54614;47.576;7.524;2024-01-30T07:01:31;9.68;;;6.32;;
67816;SDS011;54614;47.576;7.524;2024-01-30T07:03:57;10.52;;;5.95;;
67816;SDS011;54614;47.576;7.524;2024-01-30T07:06:23;10.43;;;5.65;;
67816;SDS011;54614;47.576;7.524;2024-01-30T07:08:49;10.02;;;5.60;;
67816;SDS011;54614;47.576;7.524;2024-01-30T07:11:18;11.75;;;5.70;;
67816;SDS011;54614;47.576;7.524;2024-01-30T07:13:47;12.43;;;6.25;;
67816;SDS011;54614;47.576;7.524;2024-01-30T07:16:14;10.77;;;5.63;;
67816;SDS011;54614;47.576;7.524;2024-01-30T07:18:40;11.52;;;5.80;;
67816;SDS011;54614;47.576;7.524;2024-01-30T07:21:06;8.50;;;5.68;;
67816;SDS011;54614;47.576;7.524;2024-01-30T07:23:32;9.50;;;5.30;;
67816;SDS011;54614;47.576;7.524;2024-01-30T07:25:59;13.07;;;5.70;;
67816;SDS011;54614;47.576;7.524;2024-01-30T07:28:26;9.55;;;5.78;;
67816;SDS011;54614;47.576;7.524;2024-01-30T07:30:52;10.48;;;5.22;;
67816;SDS011;54614;47.576;7.524;2024-01-30T07:33:17;10.13;;;5.35;;
67816;SDS011;54614;47.576;7.524;2024-01-30T07:35:45;7.78;;;5.13;;
67816;SDS011;54614;47.576;7.524;2024-01-30T07:38:10;6.75;;;5.00;;
67816;SDS011;54614;47.576;7.524;2024-01-30T07:40:36;7.50;;;4.85;;
67816;SDS011;54614;47.576;7.524;2024-01-30T07:43:02;8.90;;;5.30;;
67816;SDS011;54614;47.576;7.524;2024-01-30T07:45:28;8.75;;;5.00;;
67816;SDS011;54614;47.576;7.524;2024-01-30T07:47:58;6.57;;;5.15;;
67816;SDS011;54614;47.576;7.524;2024-01-30T07:50:24;7.53;;;5.43;;
67816;SDS011;54614;47.576;7.524;2024-01-30T07:52:51;9.75;;;5.53;;
67816;SDS011;54614;47.576;7.524;2024-01-30T07:58:24;8.77;;;6.00;;
67816;SDS011;54614;47.576;7.524;2024-01-30T08:00:52;9.55;;;6.07;;
67816;SDS011;54614;47.576;7.524;2024-01-30T08:03:18;9.27;;;6.03;;
67816;SDS011;54614;47.576;7.524;2024-01-30T08:05:44;13.70;;;5.90;;
67816;SDS011;54614;47.576;7.524;2024-01-30T08:08:10;12.35;;;6.28;;
67816;SDS011;54614;47.576;7.524;2024-01-30T08:10:36;12.43;;;6.50;;
67816;SDS011;54614;47.576;7.524;2024-01-30T08:13:01;12.98;;;6.03;;
67816;SDS011;54614;47.576;7.524;2024-01-30T08:15:27;12.10;;;6.25;;
67816;SDS011;54614;47.576;7.524;2024-01-30T08:17:53;9.77;;;6.20;;
67816;SDS011;54614;47.576;7.524;2024-01-30T08:20:23;9.60;;;5.95;;
67816;SDS011;54614;47.576;7.524;2024-01-30T08:22:49;13.02;;;6.25;;
67816;SDS011;54614;47.576;7.524;2024-01-30T08:25:16;11.02;;;5.90;;
67816;SDS011;54614;47.576;7.524;2024-01-30T08:27:42;10.20;;;6.18;;
67816;SDS011;54614;47.576;7.524;2024-01-30T08:30:07;9.25;;;6.45;;
67816;SDS011;54614;47.576;7.524;2024-01-30T08:32:34;12.35;;;5.97;;
67816;SDS011;54614;47.576;7.524;2024-01-30T08:35:00;11.13;;;6.03;;
67816;SDS011;54614;47.576;7.524;2024-01-30T08:37:28;10.15;;;6.07;;
67816;SDS011;54614;47.576;7.524;2024-01-30T08:39:55;10.05;;;6.32;;
67816;SDS011;54614;47.576;7.524;2024-01-30T08:42:20;10.00;;;5.97;;
67816;SDS011;54614;47.576;7.524;2024-01-30T08:44:50;9.63;;;5.82;;
67816;SDS011;54614;47.576;7.524;2024-01-30T08:47:18;10.10;;;5.88;;
67816;SDS011;54614;47.576;7.524;2024-01-30T08:49:44;9.45;;;5.95;;
67816;SDS011;54614;47.576;7.524;2024-01-30T08:52:10;8.63;;;5.97;;
67816;SDS011;54614;47.576;7.524;2024-01-30T08:54:36;10.52;;;5.22;;
67816;SDS011;54614;47.576;7.524;2024-01-30T08:57:02;8.48;;;5.88;;
67816;SDS011;54614;47.576;7.524;2024-01-30T08:59:29;8.05;;;5.55;;
67816;SDS011;54614;47.576;7.524;2024-01-30T09:01:55;8.53;;;5.67;;
67816;SDS011;54614;47.576;7.524;2024-01-30T09:04:23;9.65;;;5.40;;
67816;SDS011;54614;47.576;7.524;2024-01-30T09:06:49;9.47;;;5.60;;
67816;SDS011;54614;47.576;7.524;2024-01-30T09:09:15;8.50;;;5.45;;
67816;SDS011;54614;47.576;7.524;2024-01-30T09:11:41;10.60;;;5.37;;
67816;SDS011;54614;47.576;7.524;2024-01-30T09:14:07;8.00;;;5.67;;
67816;SDS011;54614;47.576;7.524;2024-01-30T09:16:32;8.80;;;5.43;;
67816;SDS011;54614;47.576;7.524;2024-01-30T09:18:59;9.75;;;5.60;;
67816;SDS011;54614;47.576;7.524;2024-01-30T09:21:25;6.97;;;5.10;;
67816;SDS011;54614;47.576;7.524;2024-01-30T09:23:52;9.55;;;5.05;;
67816;SDS011;54614;47.576;7.524;2024-01-30T09:26:20;7.43;;;5.05;;
67816;SDS011;54614;47.576;7.524;2024-01-30T09:28:45;8.68;;;5.07;;
67816;SDS011;54614;47.576;7.524;2024-01-30T09:31:11;7.47;;;5.05;;
67816;SDS011;54614;47.576;7.524;2024-01-30T09:33:38;6.97;;;5.20;;
67816;SDS011;54614;47.576;7.524;2024-01-30T09:36:04;6.93;;;5.13;;
67816;SDS011;54614;47.576;7.524;2024-01-30T09:38:31;7.32;;;4.93;;
67816;SDS011;54614;47.576;7.524;2024-01-30T09:40:57;6.82;;;4.88;;
67816;SDS011;54614;47.576;7.524;2024-01-30T09:43:33;8.45;;;4.90;;
67816;SDS011;54614;47.576;7.524;2024-01-30T09:46:02;6.80;;;5.03;;
67816;SDS011;54614;47.576;7.524;2024-01-30T09:48:30;7.10;;;4.93;;
67816;SDS011;54614;47.576;7.524;2024-01-30T09:50:57;5.57;;;4.47;;
67816;SDS011;54614;47.576;7.524;2024-01-30T09:53:23;7.28;;;4.70;;
67816;SDS011;54614;47.576;7.524;2024-01-30T09:55:50;7.28;;;4.90;;
67816;SDS011;54614;47.576;7.524;2024-01-30T09:58:16;7.27;;;4.77;;
67816;SDS011;54614;47.576;7.524;2024-01-30T10:00:42;5.55;;;4.22;;
67816;SDS011;54614;47.576;7.524;2024-01-30T10:03:08;5.83;;;4.40;;
67816;SDS011;54614;47.576;7.524;2024-01-30T10:05:35;7.07;;;4.82;;
67816;SDS011;54614;47.576;7.524;2024-01-30T10:08:07;6.10;;;4.28;;
67816;SDS011;54614;47.576;7.524;2024-01-30T10:10:33;5.80;;;4.50;;
67816;SDS011;54614;47.576;7.524;2024-01-30T10:13:00;5.85;;;4.50;;
67816;SDS011;54614;47.576;7.524;2024-01-30T10:15:27;6.10;;;4.72;;
67816;SDS011;54614;47.576;7.524;2024-01-30T10:17:54;5.47;;;4.40;;
67816;SDS011;54614;47.576;7.524;2024-01-30T10:20:20;7.40;;;4.70;;
67816;SDS011;54614;47.576;7.524;2024-01-30T10:22:47;5.78;;;4.32;;
67816;SDS011;54614;47.576;7.524;2024-01-30T10:25:14;6.63;;;4.47;;
67816;SDS011;54614;47.576;7.524;2024-01-30T10:27:41;6.30;;;4.15;;
67816;SDS011;54614;47.576;7.524;2024-01-30T10:30:07;5.78;;;4.25;;
67816;SDS011;54614;47.576;7.524;2024-01-30T10:32:33;6.68;;;4.55;;
67816;SDS011;54614;47.576;7.524;2024-01-30T10:34:59;5.45;;;4.00;;
67816;SDS011;54614;47.576;7.524;2024-01-30T10:37:25;5.37;;;4.10;;
67816;SDS011;54614;47.576;7.524;2024-01-30T10:39:52;5.43;;;4.10;;
67816;SDS011;54614;47.576;7.524;2024-01-30T10:42:22;5.85;;;4.40;;
67816;SDS011;54614;47.576;7.524;2024-01-30T10:47:43;5.60;;;4.15;;
67816;SDS011;54614;47.576;7.524;2024-01-30T10:50:15;5.65;;;3.90;;
67816;SDS011;54614;47.576;7.524;2024-01-30T10:52:41;4.90;;;4.07;;
67816;SDS011;54614;47.576;7.524;2024-01-30T10:55:08;5.63;;;4.28;;
67816;SDS011;54614;47.576;7.524;2024-01-30T10:57:35;5.70;;;4.10;;
67816;SDS011;54614;47.576;7.524;2024-01-30T11:00:09;5.32;;;3.88;;
67816;SDS011;54614;47.576;7.524;2024-01-30T11:02:45;5.50;;;3.78;;
67816;SDS011;54614;47.576;7.524;2024-01-30T11:05:12;4.60;;;3.80;;
67816;SDS011;54614;47.576;7.524;2024-01-30T11:07:40;5.85;;;4.20;;
67816;SDS011;54614;47.576;7.524;2024-01-30T11:10:06;4.50;;;3.80;;
67816;SDS011;54614;47.576;7.524;2024-01-30T11:12:37;5.05;;;3.80;;
67816;SDS011;54614;47.576;7.524;2024-01-30T11:15:09;5.57;;;4.20;;
67816;SDS011;54614;47.576;7.524;2024-01-30T11:20:16;5.72;;;3.97;;
67816;SDS011;54614;47.576;7.524;2024-01-30T11:23:11;5.00;;;3.95;;
67816;SDS011;54614;47.576;7.524;2024-01-30T11:25:37;5.18;;;4.18;;
67816;SDS011;54614;47.576;7.524;2024-01-30T11:28:03;5.70;;;4.20;;
67816;SDS011;54614;47.576;7.524;2024-01-30T11:30:30;5.05;;;3.58;;
67816;SDS011;54614;47.576;7.524;2024-01-30T11:33:13;5.88;;;3.88;;
67816;SDS011;54614;47.576;7.524;2024-01-30T11:38:07;4.75;;;3.92;;
67816;SDS011;54614;47.576;7.524;2024-01-30T11:40:36;4.38;;;3.78;;
67816;SDS011;54614;47.576;7.524;2024-01-30T11:43:04;5.65;;;4.10;;
67816;SDS011;54614;47.576;7.524;2024-01-30T11:45:33;5.03;;;3.88;;
67816;SDS011;54614;47.576;7.524;2024-01-30T11:48:00;4.70;;;3.70;;
67816;SDS011;54614;47.576;7.524;2024-01-30T11:50:28;5.43;;;4.03;;
67816;SDS011;54614;47.576;7.524;2024-01-30T11:52:59;7.13;;;3.70;;
67816;SDS011;54614;47.576;7.524;2024-01-30T11:55:25;4.18;;;3.50;;
67816;SDS011;54614;47.576;7.524;2024-01-30T11:57:55;4.00;;;3.47;;
67816;SDS011;54614;47.576;7.524;2024-01-30T12:00:24;3.83;;;3.42;;
67816;SDS011;54614;47.576;7.524;2024-01-30T12:02:51;4.15;;;3.60;;
67816;SDS011;54614;47.576;7.524;2024-01-30T12:05:23;4.00;;;3.42;;
67816;SDS011;54614;47.576;7.524;2024-01-30T12:07:50;4.50;;;3.55;;
67816;SDS011;54614;47.576;7.524;2024-01-30T12:10:17;5.82;;;3.15;;
67816;SDS011;54614;47.576;7.524;2024-01-30T12:12:45;4.07;;;3.50;;
67816;SDS011;54614;47.576;7.524;2024-01-30T12:15:14;4.20;;;3.58;;
67816;SDS011;54614;47.576;7.524;2024-01-30T12:17:40;4.28;;;3.53;;
67816;SDS011;54614;47.576;7.524;2024-01-30T12:22:52;4.57;;;3.63;;
67816;SDS011;54614;47.576;7.524;2024-01-30T12:25:20;4.45;;;3.55;;
67816;SDS011;54614;47.576;7.524;2024-01-30T12:27:48;4.03;;;3.63;;
67816;SDS011;54614;47.576;7.524;2024-01-30T12:30:16;4.55;;;3.50;;
67816;SDS011;54614;47.576;7.524;2024-01-30T12:32:44;4.50;;;3.50;;
67816;SDS011;54614;47.576;7.524;2024-01-30T12:35:13;4.47;;;3.60;;
67816;SDS011;54614;47.576;7.524;2024-01-30T12:37:43;4.35;;;3.70;;
67816;SDS011;54614;47.576;7.524;2024-01-30T12:40:11;3.67;;;3.30;;
67816;SDS011;54614;47.576;7.524;2024-01-30T12:42:39;3.72;;;3.33;;
67816;SDS011;54614;47.576;7.524;2024-01-30T12:45:07;4.07;;;3.30;;
67816;SDS011;54614;47.576;7.524;2024-01-30T12:47:34;4.50;;;3.55;;
67816;SDS011;54614;47.576;7.524;2024-01-30T12:50:00;3.97;;;3.58;;
67816;SDS011;54614;47.576;7.524;2024-01-30T12:52:26;3.90;;;3.20;;
67816;SDS011;54614;47.576;7.524;2024-01-30T12:54:52;4.00;;;3.40;;
67816;SDS011;54614;47.576;7.524;2024-01-30T12:57:18;5.33;;;3.60;;
67816;SDS011;54614;47.576;7.524;2024-01-30T12:59:44;3.95;;;3.22;;
67816;SDS011;54614;47.576;7.524;2024-01-30T13:02:14;4.25;;;3.25;;
67816;SDS011;54614;47.576;7.524;2024-01-30T13:04:41;4.28;;;3.40;;
67816;SDS011;54614;47.576;7.524;2024-01-30T13:07:08;3.67;;;3.15;;
67816;SDS011;54614;47.576;7.524;2024-01-30T13:09:33;3.78;;;3.35;;
67816;SDS011;54614;47.576;7.524;2024-01-30T13:11:59;4.18;;;3.55;;
67816;SDS011;54614;47.576;7.524;2024-01-30T13:14:25;3.50;;;3.20;;
67816;SDS011;54614;47.576;7.524;2024-01-30T13:16:51;4.57;;;3.45;;
67816;SDS011;54614;47.576;7.524;2024-01-30T13:19:18;4.32;;;3.60;;
67816;SDS011;54614;47.576;7.524;2024-01-30T13:21:44;3.90;;;3.50;;
67816;SDS011;54614;47.576;7.524;2024-01-30T13:24:11;4.73;;;3.60;;
67816;SDS011;54614;47.576;7.524;2024-01-30T13:26:37;3.75;;;3.20;;
67816;SDS011;54614;47.576;7.524;2024-01-30T13:29:02;3.88;;;3.30;;
67816;SDS011;54614;47.576;7.524;2024-01-30T13:31:28;3.67;;;3.13;;
67816;SDS011;54614;47.576;7.524;2024-01-30T13:33:55;3.47;;;2.92;;
67816;SDS011;54614;47.576;7.524;2024-01-30T13:36:21;3.40;;;3.10;;
67816;SDS011;54614;47.576;7.524;2024-01-30T13:38:47;4.75;;;3.40;;
67816;SDS011;54614;47.576;7.524;2024-01-30T13:41:13;3.50;;;3.20;;
67816;SDS011;54614;47.576;7.524;2024-01-30T13:43:39;3.78;;;3.28;;
67816;SDS011;54614;47.576;7.524;2024-01-30T13:46:05;3.67;;;3.20;;
67816;SDS011;54614;47.576;7.524;2024-01-30T13:48:31;3.50;;;3.20;;
67816;SDS011;54614;47.576;7.524;2024-01-30T13:50:57;4.30;;;3.38;;
67816;SDS011;54614;47.576;7.524;2024-01-30T13:53:22;4.15;;;3.10;;
67816;SDS011;54614;47.576;7.524;2024-01-30T13:55:48;3.80;;;3.40;;
67816;SDS011;54614;47.576;7.524;2024-01-30T13:58:14;4.22;;;3.15;;
67816;SDS011;54614;47.576;7.524;2024-01-30T14:00:40;3.95;;;3.17;;
67816;SDS011;54614;47.576;7.524;2024-01-30T14:03:06;3.58;;;3.28;;
67816;SDS011;54614;47.576;7.524;2024-01-30T14:05:32;3.40;;;3.10;;
67816;SDS011;54614;47.576;7.524;2024-01-30T14:07:58;4.80;;;3.13;;
67816;SDS011;54614;47.576;7.524;2024-01-30T14:10:25;3.65;;;3.30;;
67816;SDS011;54614;47.576;7.524;2024-01-30T14:12:51;3.10;;;2.90;;
67816;SDS011;54614;47.576;7.524;2024-01-30T14:15:17;3.67;;;3.20;;
67816;SDS011;54614;47.576;7.524;2024-01-30T14:17:43;3.75;;;3.30;;
67816;SDS011;54614;47.576;7.524;2024-01-30T14:20:13;3.87;;;3.40;;
67816;SDS011;54614;47.576;7.524;2024-01-30T14:22:43;4.35;;;3.45;;
67816;SDS011;54614;47.576;7.524;2024-01-30T14:25:11;3.80;;;3.33;;
67816;SDS011;54614;47.576;7.524;2024-01-30T14:27:37;3.45;;;3.15;;
67816;SDS011;54614;47.576;7.524;2024-01-30T14:30:03;3.25;;;2.95;;
67816;SDS011;54614;47.576;7.524;2024-01-30T14:32:29;3.97;;;3.20;;
67816;SDS011;54614;47.576;7.524;2024-01-30T14:34:55;3.83;;;3.00;;
67816;SDS011;54614;47.576;7.524;2024-01-30T14:37:21;3.25;;;2.95;;
67816;SDS011;54614;47.576;7.524;2024-01-30T14:39:48;3.30;;;3.00;;
67816;SDS011;54614;47.576;7.524;2024-01-30T14:42:14;3.38;;;3.08;;
67816;SDS011;54614;47.576;7.524;2024-01-30T14:44:40;4.43;;;3.23;;
67816;SDS011;54614;47.576;7.524;2024-01-30T14:47:07;3.50;;;3.10;;
67816;SDS011;54614;47.576;7.524;2024-01-30T14:49:33;3.17;;;2.90;;
67816;SDS011;54614;47.576;7.524;2024-01-30T14:51:59;3.58;;;2.90;;
67816;SDS011;54614;47.576;7.524;2024-01-30T14:54:26;3.20;;;2.90;;
67816;SDS011;54614;47.576;7.524;2024-01-30T14:56:52;4.35;;;3.95;;